sensor_id;sensor_type;location;lat;lon;timestamp;pressure;altitude;pressure_sealevel;temperature
7830;BMP180;3960;51.86894000;5.39848000;2023-03-21T00:00:59;101690.75;;;9.71
7830;BMP180;3960;51.86894000;5.39848000;2023-03-21T00:03:27;101669.06;;;9.60
7830;BMP180;3960;51.86894000;5.39848000;2023-03-21T00:05:53;101682.97;;;9.62
7830;BMP180;3960;51.86894000;5.39848000;2023-03-21T00:08:23;101698.09;;;9.67
7830;BMP180;3960;51.86894000;5.39848000;2023-03-21T00:11:00;101682.56;;;9.60
7830;BMP180;3960;51.86894000;5.39848000;2023-03-21T00:13:26;101681.03;;;9.59
7830;BMP180;3960;51.86894000;5.39848000;2023-03-21T00:15:52;101699.97;;;9.63
7830;BMP180;3960;51.86894000;5.39848000;2023-03-21T00:18:22;101687.97;;;9.60
7830;BMP180;3960;51.86894000;5.39848000;2023-03-21T00:21:00;101691.06;;;9.59
7830;BMP180;3960;51.86894000;5.39848000;2023-03-21T00:23:26;101683.34;;;9.57
7830;BMP180;3960;51.86894000;5.39848000;2023-03-21T00:25:52;101671.66;;;9.46
7830;BMP180;3960;51.86894000;5.39848000;2023-03-21T00:28:17;101666.66;;;9.48
7830;BMP180;3960;51.86894000;5.39848000;2023-03-21T00:30:43;101670.16;;;9.52
7830;BMP180;3960;51.86894000;5.39848000;2023-03-21T00:33:08;101674.44;;;9.57
7830;BMP180;3960;51.86894000;5.39848000;2023-03-21T00:35:33;101677.53;;;9.55
7830;BMP180;3960;51.86894000;5.39848000;2023-03-21T00:37:59;101675.22;;;9.57
7830;BMP180;3960;51.86894000;5.39848000;2023-03-21T00:40:25;101669.03;;;9.57
7830;BMP180;3960;51.86894000;5.39848000;2023-03-21T00:42:50;101671.34;;;9.55
7830;BMP180;3960;51.86894000;5.39848000;2023-03-21T00:45:16;101666.31;;;9.57
7830;BMP180;3960;51.86894000;5.39848000;2023-03-21T00:47:43;101653.94;;;9.52
7830;BMP180;3960;51.86894000;5.39848000;2023-03-21T00:50:09;101660.53;;;9.58
7830;BMP180;3960;51.86894000;5.39848000;2023-03-21T00:52:36;101649.69;;;9.51
7830;BMP180;3960;51.86894000;5.39848000;2023-03-21T00:55:01;101642.72;;;9.50
7830;BMP180;3960;51.86894000;5.39848000;2023-03-21T00:57:26;101655.88;;;9.52
7830;BMP180;3960;51.86894000;5.39848000;2023-03-21T00:59:52;101648.53;;;9.56
7830;BMP180;3960;51.86894000;5.39848000;2023-03-21T01:02:17;101641.97;;;9.53
7830;BMP180;3960;51.86894000;5.39848000;2023-03-21T01:04:48;101646.63;;;9.56
7830;BMP180;3960;51.86894000;5.39848000;2023-03-21T01:07:14;101629.19;;;9.47
7830;BMP180;3960;51.86894000;5.39848000;2023-03-21T01:09:39;101635.44;;;9.58
7830;BMP180;3960;51.86894000;5.39848000;2023-03-21T01:12:05;101624.19;;;9.52
7830;BMP180;3960;51.86894000;5.39848000;2023-03-21T01:14:30;101634.28;;;9.59
7830;BMP180;3960;51.86894000;5.39848000;2023-03-21T01:16:55;101606.78;;;9.46
7830;BMP180;3960;51.86894000;5.39848000;2023-03-21T01:19:23;101631.97;;;9.61
7830;BMP180;3960;51.86894000;5.39848000;2023-03-21T01:21:52;101619.97;;;9.58
7830;BMP180;3960;51.86894000;5.39848000;2023-03-21T01:24:18;101623.06;;;9.57
7830;BMP180;3960;51.86894000;5.39848000;2023-03-21T01:26:43;101621.16;;;9.57
7830;BMP180;3960;51.86894000;5.39848000;2023-03-21T01:29:09;101625.03;;;9.60
7830;BMP180;3960;51.86894000;5.39848000;2023-03-21T01:31:34;101613.03;;;9.57
7830;BMP180;3960;51.86894000;5.39848000;2023-03-21T01:33:59;101625.81;;;9.64
7830;BMP180;3960;51.86894000;5.39848000;2023-03-21T01:36:25;101625.41;;;9.65
7830;BMP180;3960;51.86894000;5.39848000;2023-03-21T01:38:52;101615.75;;;9.61
7830;BMP180;3960;51.86894000;5.39848000;2023-03-21T01:43:46;101620.41;;;9.64
7830;BMP180;3960;51.86894000;5.39848000;2023-03-21T01:49:03;101598.34;;;9.55
7830;BMP180;3960;51.86894000;5.39848000;2023-03-21T01:51:34;101598.34;;;9.62
7830;BMP180;3960;51.86894000;5.39848000;2023-03-21T01:54:00;101591.72;;;9.52
7830;BMP180;3960;51.86894000;5.39848000;2023-03-21T01:56:32;101599.88;;;9.59
7830;BMP180;3960;51.86894000;5.39848000;2023-03-21T01:59:04;101601.81;;;9.59
7830;BMP180;3960;51.86894000;5.39848000;2023-03-21T02:01:31;101588.28;;;9.52
7830;BMP180;3960;51.86894000;5.39848000;2023-03-21T02:03:58;101593.72;;;9.59
7830;BMP180;3960;51.86894000;5.39848000;2023-03-21T02:06:39;101587.50;;;9.58
7830;BMP180;3960;51.86894000;5.39848000;2023-03-21T02:09:10;101582.50;;;9.57
7830;BMP180;3960;51.86894000;5.39848000;2023-03-21T02:11:36;101578.63;;;9.58
7830;BMP180;3960;51.86894000;5.39848000;2023-03-21T02:14:02;101581.72;;;9.56
7830;BMP180;3960;51.86894000;5.39848000;2023-03-21T02:19:30;101572.81;;;9.56
7830;BMP180;3960;51.86894000;5.39848000;2023-03-21T02:28:18;101564.34;;;9.57
7830;BMP180;3960;51.86894000;5.39848000;2023-03-21T02:37:31;101555.44;;;9.53
7830;BMP180;3960;51.86894000;5.39848000;2023-03-21T02:39:41;101557.78;;;9.55
7830;BMP180;3960;51.86894000;5.39848000;2023-03-21T02:42:18;101554.28;;;9.54
7830;BMP180;3960;51.86894000;5.39848000;2023-03-21T02:45:01;101545.41;;;9.54
7830;BMP180;3960;51.86894000;5.39848000;2023-03-21T02:47:45;101524.47;;;9.37
7830;BMP180;3960;51.86894000;5.39848000;2023-03-21T02:50:17;101546.94;;;9.51
7830;BMP180;3960;51.86894000;5.39848000;2023-03-21T02:52:45;101548.47;;;9.49
7830;BMP180;3960;51.86894000;5.39848000;2023-03-21T02:55:15;101531.81;;;9.40
7830;BMP180;3960;51.86894000;5.39848000;2023-03-21T02:57:44;101552.34;;;9.51
7830;BMP180;3960;51.86894000;5.39848000;2023-03-21T03:00:14;101541.13;;;9.49
7830;BMP180;3960;51.86894000;5.39848000;2023-03-21T03:02:41;101539.97;;;9.50
7830;BMP180;3960;51.86894000;5.39848000;2023-03-21T03:05:25;101536.84;;;9.45
7830;BMP180;3960;51.86894000;5.39848000;2023-03-21T03:18:54;101525.25;;;9.38
7830;BMP180;3960;51.86894000;5.39848000;2023-03-21T03:21:36;101535.72;;;9.46
7830;BMP180;3960;51.86894000;5.39848000;2023-03-21T03:27:17;101534.91;;;9.45
7830;BMP180;3960;51.86894000;5.39848000;2023-03-21T03:29:45;101505.88;;;9.29
7830;BMP180;3960;51.86894000;5.39848000;2023-03-21T03:32:18;101529.50;;;9.45
7830;BMP180;3960;51.86894000;5.39848000;2023-03-21T03:34:49;101528.34;;;9.43
7830;BMP180;3960;51.86894000;5.39848000;2023-03-21T03:37:19;101524.50;;;9.44
7830;BMP180;3960;51.86894000;5.39848000;2023-03-21T03:39:50;101518.69;;;9.45
7830;BMP180;3960;51.86894000;5.39848000;2023-03-21T03:42:24;101504.38;;;9.35
7830;BMP180;3960;51.86894000;5.39848000;2023-03-21T03:44:52;101517.94;;;9.45
7830;BMP180;3960;51.86894000;5.39848000;2023-03-21T03:47:21;101518.31;;;9.43
7830;BMP180;3960;51.86894000;5.39848000;2023-03-21T03:50:06;101520.22;;;9.43
7830;BMP180;3960;51.86894000;5.39848000;2023-03-21T03:52:36;101502.78;;;9.30
7830;BMP180;3960;51.86894000;5.39848000;2023-03-21T03:55:04;101514.03;;;9.36
7830;BMP180;3960;51.86894000;5.39848000;2023-03-21T03:57:30;101503.22;;;9.36
7830;BMP180;3960;51.86894000;5.39848000;2023-03-21T03:59:55;101517.50;;;9.40
7830;BMP180;3960;51.86894000;5.39848000;2023-03-21T04:02:20;101495.84;;;9.29
7830;BMP180;3960;51.86894000;5.39848000;2023-03-21T04:04:46;101512.50;;;9.38
7830;BMP180;3960;51.86894000;5.39848000;2023-03-21T04:07:12;101509.78;;;9.38
7830;BMP180;3960;51.86894000;5.39848000;2023-03-21T04:09:37;101493.53;;;9.31
7830;BMP180;3960;51.86894000;5.39848000;2023-03-21T04:12:03;101514.06;;;9.39
7830;BMP180;3960;51.86894000;5.39848000;2023-03-21T04:14:28;101504.38;;;9.35
7830;BMP180;3960;51.86894000;5.39848000;2023-03-21T04:16:53;101495.88;;;9.36
7830;BMP180;3960;51.86894000;5.39848000;2023-03-21T04:19:19;101483.50;;;9.32
7830;BMP180;3960;51.86894000;5.39848000;2023-03-21T04:21:45;101490.84;;;9.31
7830;BMP180;3960;51.86894000;5.39848000;2023-03-21T04:24:10;101491.66;;;9.35
7830;BMP180;3960;51.86894000;5.39848000;2023-03-21T04:26:38;101478.84;;;9.29
7830;BMP180;3960;51.86894000;5.39848000;2023-03-21T04:29:04;101487.00;;;9.36
7830;BMP180;3960;51.86894000;5.39848000;2023-03-21T04:31:31;101490.47;;;9.36
7830;BMP180;3960;51.86894000;5.39848000;2023-03-21T04:33:59;101488.56;;;9.37
7830;BMP180;3960;51.86894000;5.39848000;2023-03-21T04:36:26;101484.28;;;9.36
7830;BMP180;3960;51.86894000;5.39848000;2023-03-21T04:38:55;101484.28;;;9.36
7830;BMP180;3960;51.86894000;5.39848000;2023-03-21T04:41:26;101488.94;;;9.35
7830;BMP180;3960;51.86894000;5.39848000;2023-03-21T04:43:51;101476.91;;;9.29
7830;BMP180;3960;51.86894000;5.39848000;2023-03-21T04:46:17;101482.75;;;9.35
7830;BMP180;3960;51.86894000;5.39848000;2023-03-21T04:48:42;101480.44;;;9.33
7830;BMP180;3960;51.86894000;5.39848000;2023-03-21T04:51:07;101478.47;;;9.34
7830;BMP180;3960;51.86894000;5.39848000;2023-03-21T04:53:32;101472.69;;;9.32
7830;BMP180;3960;51.86894000;5.39848000;2023-03-21T04:55:58;101470.75;;;9.32
7830;BMP180;3960;51.86894000;5.39848000;2023-03-21T04:58:23;101469.19;;;9.28
7830;BMP180;3960;51.86894000;5.39848000;2023-03-21T05:00:48;101468.44;;;9.31
7830;BMP180;3960;51.86894000;5.39848000;2023-03-21T05:03:17;101470.75;;;9.32
7830;BMP180;3960;51.86894000;5.39848000;2023-03-21T05:05:44;101474.22;;;9.33
7830;BMP180;3960;51.86894000;5.39848000;2023-03-21T05:08:10;101450.66;;;9.23
7830;BMP180;3960;51.86894000;5.39848000;2023-03-21T05:10:36;101468.81;;;9.33
7830;BMP180;3960;51.86894000;5.39848000;2023-03-21T05:13:01;101471.53;;;9.33
7830;BMP180;3960;51.86894000;5.39848000;2023-03-21T05:15:27;101466.50;;;9.28
7830;BMP180;3960;51.86894000;5.39848000;2023-03-21T05:17:52;101449.88;;;9.22
7830;BMP180;3960;51.86894000;5.39848000;2023-03-21T05:20:17;101456.47;;;9.28
7830;BMP180;3960;51.86894000;5.39848000;2023-03-21T05:22:43;101457.63;;;9.31
7830;BMP180;3960;51.86894000;5.39848000;2023-03-21T05:25:11;101458.78;;;9.30
7830;BMP180;3960;51.86894000;5.39848000;2023-03-21T05:27:37;101430.56;;;9.17
7830;BMP180;3960;51.86894000;5.39848000;2023-03-21T05:30:12;101457.63;;;9.31
7830;BMP180;3960;51.86894000;5.39848000;2023-03-21T05:32:38;101432.88;;;9.18
7830;BMP180;3960;51.86894000;5.39848000;2023-03-21T05:35:04;101445.66;;;9.28
7830;BMP180;3960;51.86894000;5.39848000;2023-03-21T05:37:29;101447.56;;;9.28
7830;BMP180;3960;51.86894000;5.39848000;2023-03-21T05:39:55;101453.78;;;9.32
7830;BMP180;3960;51.86894000;5.39848000;2023-03-21T05:42:20;101452.22;;;9.31
7830;BMP180;3960;51.86894000;5.39848000;2023-03-21T05:44:46;101429.41;;;9.18
7830;BMP180;3960;51.86894000;5.39848000;2023-03-21T05:47:13;101454.13;;;9.30
7830;BMP180;3960;51.86894000;5.39848000;2023-03-21T05:49:39;101456.84;;;9.30
7830;BMP180;3960;51.86894000;5.39848000;2023-03-21T05:52:04;101459.53;;;9.30
7830;BMP180;3960;51.86894000;5.39848000;2023-03-21T05:54:29;101451.09;;;9.32
7830;BMP180;3960;51.86894000;5.39848000;2023-03-21T05:56:55;101441.41;;;9.31
7830;BMP180;3960;51.86894000;5.39848000;2023-03-21T05:59:20;101449.91;;;9.33
7830;BMP180;3960;51.86894000;5.39848000;2023-03-21T06:01:45;101444.13;;;9.34
7830;BMP180;3960;51.86894000;5.39848000;2023-03-21T06:04:11;101440.63;;;9.34
7830;BMP180;3960;51.86894000;5.39848000;2023-03-21T06:06:36;101425.19;;;9.27
7830;BMP180;3960;51.86894000;5.39848000;2023-03-21T06:09:01;101443.75;;;9.39
7830;BMP180;3960;51.86894000;5.39848000;2023-03-21T06:11:33;101437.19;;;9.33
7830;BMP180;3960;51.86894000;5.39848000;2023-03-21T06:14:00;101421.69;;;9.23
7830;BMP180;3960;51.86894000;5.39848000;2023-03-21T06:16:25;101438.75;;;9.41
7830;BMP180;3960;51.86894000;5.39848000;2023-03-21T06:18:50;101434.50;;;9.37
7830;BMP180;3960;51.86894000;5.39848000;2023-03-21T06:21:16;101441.47;;;9.44
7830;BMP180;3960;51.86894000;5.39848000;2023-03-21T06:23:41;101443.78;;;9.46
7830;BMP180;3960;51.86894000;5.39848000;2023-03-21T06:26:07;101446.09;;;9.47
7830;BMP180;3960;51.86894000;5.39848000;2023-03-21T06:28:32;101455.00;;;9.48
7830;BMP180;3960;51.86894000;5.39848000;2023-03-21T06:30:57;101455.78;;;9.52
7830;BMP180;3960;51.86894000;5.39848000;2023-03-21T06:33:23;101452.66;;;9.50
7830;BMP180;3960;51.86894000;5.39848000;2023-03-21T06:35:56;101457.72;;;9.55
7830;BMP180;3960;51.86894000;5.39848000;2023-03-21T06:38:22;101463.13;;;9.58
7830;BMP180;3960;51.86894000;5.39848000;2023-03-21T06:40:48;101454.63;;;9.56
7830;BMP180;3960;51.86894000;5.39848000;2023-03-21T06:43:14;101460.44;;;9.62
7830;BMP180;3960;51.86894000;5.39848000;2023-03-21T06:45:43;101450.38;;;9.59
7830;BMP180;3960;51.86894000;5.39848000;2023-03-21T06:48:09;101446.13;;;9.58
7830;BMP180;3960;51.86894000;5.39848000;2023-03-21T06:50:34;101455.81;;;9.66
7830;BMP180;3960;51.86894000;5.39848000;2023-03-21T06:53:00;101459.69;;;9.68
7830;BMP180;3960;51.86894000;5.39848000;2023-03-21T06:55:26;101464.69;;;9.70
7830;BMP180;3960;51.86894000;5.39848000;2023-03-21T06:57:53;101444.19;;;9.62
7830;BMP180;3960;51.86894000;5.39848000;2023-03-21T07:00:20;101455.03;;;9.72
7830;BMP180;3960;51.86894000;5.39848000;2023-03-21T07:02:46;101431.47;;;9.66
7830;BMP180;3960;51.86894000;5.39848000;2023-03-21T07:05:11;101453.91;;;9.77
7830;BMP180;3960;51.86894000;5.39848000;2023-03-21T07:07:38;101448.13;;;9.71
7830;BMP180;3960;51.86894000;5.39848000;2023-03-21T07:10:04;101459.72;;;9.79
7830;BMP180;3960;51.86894000;5.39848000;2023-03-21T07:12:30;101457.00;;;9.82
7830;BMP180;3960;51.86894000;5.39848000;2023-03-21T07:14:58;101435.75;;;9.70
7830;BMP180;3960;51.86894000;5.39848000;2023-03-21T07:17:24;101468.59;;;9.86
7830;BMP180;3960;51.86894000;5.39848000;2023-03-21T07:19:49;101450.44;;;9.80
7830;BMP180;3960;51.86894000;5.39848000;2023-03-21T07:22:14;101469.75;;;9.89
7830;BMP180;3960;51.86894000;5.39848000;2023-03-21T07:24:40;101481.75;;;9.91
7830;BMP180;3960;51.86894000;5.39848000;2023-03-21T07:27:05;101477.13;;;9.92
7830;BMP180;3960;51.86894000;5.39848000;2023-03-21T07:29:30;101479.44;;;9.93
7830;BMP180;3960;51.86894000;5.39848000;2023-03-21T07:31:55;101475.59;;;9.94
7830;BMP180;3960;51.86894000;5.39848000;2023-03-21T07:34:21;101476.75;;;9.97
7830;BMP180;3960;51.86894000;5.39848000;2023-03-21T07:36:46;101470.22;;;9.98
7830;BMP180;3960;51.86894000;5.39848000;2023-03-21T07:39:11;101485.66;;;10.04
7830;BMP180;3960;51.86894000;5.39848000;2023-03-21T07:41:37;101473.31;;;10.07
7830;BMP180;3960;51.86894000;5.39848000;2023-03-21T07:44:02;101460.56;;;10.07
7830;BMP180;3960;51.86894000;5.39848000;2023-03-21T07:46:27;101472.16;;;10.15
7830;BMP180;3960;51.86894000;5.39848000;2023-03-21T07:48:56;101457.47;;;10.16
7830;BMP180;3960;51.86894000;5.39848000;2023-03-21T07:51:21;101435.44;;;10.03
7830;BMP180;3960;51.86894000;5.39848000;2023-03-21T07:53:46;101448.59;;;10.18
7830;BMP180;3960;51.86894000;5.39848000;2023-03-21T07:56:12;101438.91;;;10.21
7830;BMP180;3960;51.86894000;5.39848000;2023-03-21T07:58:38;101448.59;;;10.22
7830;BMP180;3960;51.86894000;5.39848000;2023-03-21T08:01:03;101447.03;;;10.24
7830;BMP180;3960;51.86894000;5.39848000;2023-03-21T08:03:29;101449.75;;;10.24
7830;BMP180;3960;51.86894000;5.39848000;2023-03-21T08:05:58;101445.47;;;10.23
7830;BMP180;3960;51.86894000;5.39848000;2023-03-21T08:08:24;101448.97;;;10.17
7830;BMP180;3960;51.86894000;5.39848000;2023-03-21T08:10:50;101435.81;;;10.19
7830;BMP180;3960;51.86894000;5.39848000;2023-03-21T08:13:15;101416.50;;;10.07
7830;BMP180;3960;51.86894000;5.39848000;2023-03-21T08:15:40;101442.00;;;10.16
7830;BMP180;3960;51.86894000;5.39848000;2023-03-21T08:18:07;101430.38;;;10.09
7830;BMP180;3960;51.86894000;5.39848000;2023-03-21T08:20:32;101434.66;;;10.17
7830;BMP180;3960;51.86894000;5.39848000;2023-03-21T08:22:58;101435.81;;;10.19
7830;BMP180;3960;51.86894000;5.39848000;2023-03-21T08:25:23;101418.81;;;10.15
7830;BMP180;3960;51.86894000;5.39848000;2023-03-21T08:27:49;101428.09;;;10.24
7830;BMP180;3960;51.86894000;5.39848000;2023-03-21T08:30:20;101401.00;;;10.18
7830;BMP180;3960;51.86894000;5.39848000;2023-03-21T08:32:46;101424.59;;;10.34
7830;BMP180;3960;51.86894000;5.39848000;2023-03-21T08:35:13;101421.88;;;10.38
7830;BMP180;3960;51.86894000;5.39848000;2023-03-21T08:37:40;101424.56;;;10.41
7830;BMP180;3960;51.86894000;5.39848000;2023-03-21T08:40:10;101410.69;;;10.43
7830;BMP180;3960;51.86894000;5.39848000;2023-03-21T08:42:37;101412.97;;;10.51
7830;BMP180;3960;51.86894000;5.39848000;2023-03-21T08:45:03;101408.72;;;10.57
7830;BMP180;3960;51.86894000;5.39848000;2023-03-21T08:47:29;101397.47;;;10.62
7830;BMP180;3960;51.86894000;5.39848000;2023-03-21T08:49:55;101406.00;;;10.61
7830;BMP180;3960;51.86894000;5.39848000;2023-03-21T08:52:20;101407.53;;;10.72
7830;BMP180;3960;51.86894000;5.39848000;2023-03-21T08:54:45;101405.16;;;10.78
7830;BMP180;3960;51.86894000;5.39848000;2023-03-21T08:57:12;101401.69;;;10.81
7830;BMP180;3960;51.86894000;5.39848000;2023-03-21T08:59:39;101402.03;;;10.83
7830;BMP180;3960;51.86894000;5.39848000;2023-03-21T09:02:05;101397.81;;;10.85
7830;BMP180;3960;51.86894000;5.39848000;2023-03-21T09:04:30;101384.63;;;10.84
7830;BMP180;3960;51.86894000;5.39848000;2023-03-21T09:06:56;101400.47;;;10.92
7830;BMP180;3960;51.86894000;5.39848000;2023-03-21T09:09:21;101400.44;;;10.95
7830;BMP180;3960;51.86894000;5.39848000;2023-03-21T09:11:46;101385.75;;;10.89
7830;BMP180;3960;51.86894000;5.39848000;2023-03-21T09:14:12;101373.44;;;10.82
7830;BMP180;3960;51.86894000;5.39848000;2023-03-21T09:16:37;101385.75;;;10.93
7830;BMP180;3960;51.86894000;5.39848000;2023-03-21T09:19:02;101383.78;;;11.04
7830;BMP180;3960;51.86894000;5.39848000;2023-03-21T09:21:29;101389.19;;;11.11
7830;BMP180;3960;51.86894000;5.39848000;2023-03-21T09:23:55;101380.22;;;11.17
7830;BMP180;3960;51.86894000;5.39848000;2023-03-21T09:26:23;101375.22;;;11.16
7830;BMP180;3960;51.86894000;5.39848000;2023-03-21T09:28:49;101380.22;;;11.21
7830;BMP180;3960;51.86894000;5.39848000;2023-03-21T09:31:16;101376.34;;;11.18
7830;BMP180;3960;51.86894000;5.39848000;2023-03-21T09:33:45;101366.69;;;11.17
7830;BMP180;3960;51.86894000;5.39848000;2023-03-21T09:36:11;101349.25;;;11.15
7830;BMP180;3960;51.86894000;5.39848000;2023-03-21T09:38:42;101362.38;;;11.27
7830;BMP180;3960;51.86894000;5.39848000;2023-03-21T09:49:30;101359.59;;;11.37
7830;BMP180;3960;51.86894000;5.39848000;2023-03-21T09:52:01;101351.88;;;11.36
7830;BMP180;3960;51.86894000;5.39848000;2023-03-21T09:54:35;101350.69;;;11.37
7830;BMP180;3960;51.86894000;5.39848000;2023-03-21T09:57:13;101330.22;;;11.29
7830;BMP180;3960;51.86894000;5.39848000;2023-03-21T09:59:39;101345.22;;;11.47
7830;BMP180;3960;51.86894000;5.39848000;2023-03-21T10:02:25;101339.38;;;11.49
7830;BMP180;3960;51.86894000;5.39848000;2023-03-21T10:05:02;101345.97;;;11.55
7830;BMP180;3960;51.86894000;5.39848000;2023-03-21T10:07:38;101350.94;;;11.63
7830;BMP180;3960;51.86894000;5.39848000;2023-03-21T10:10:12;101351.63;;;11.70
7830;BMP180;3960;51.86894000;5.39848000;2023-03-21T10:12:39;101352.41;;;11.74
7830;BMP180;3960;51.86894000;5.39848000;2023-03-21T10:15:06;101342.69;;;11.77
7830;BMP180;3960;51.86894000;5.39848000;2023-03-21T10:17:41;101336.53;;;11.73
7830;BMP180;3960;51.86894000;5.39848000;2023-03-21T10:20:24;101344.91;;;11.89
7830;BMP180;3960;51.86894000;5.39848000;2023-03-21T10:22:52;101330.94;;;11.90
7830;BMP180;3960;51.86894000;5.39848000;2023-03-21T10:25:22;101337.41;;;12.03
7830;BMP180;3960;51.86894000;5.39848000;2023-03-21T10:27:49;101332.75;;;12.07
7830;BMP180;3960;51.86894000;5.39848000;2023-03-21T10:30:25;101330.69;;;12.18
7830;BMP180;3960;51.86894000;5.39848000;2023-03-21T10:32:53;101326.34;;;12.24
7830;BMP180;3960;51.86894000;5.39848000;2023-03-21T10:35:20;101330.47;;;12.39
7830;BMP180;3960;51.86894000;5.39848000;2023-03-21T10:37:45;101323.38;;;12.48
7830;BMP180;3960;51.86894000;5.39848000;2023-03-21T10:40:16;101298.94;;;12.48
7830;BMP180;3960;51.86894000;5.39848000;2023-03-21T10:42:42;101320.88;;;12.64
7830;BMP180;3960;51.86894000;5.39848000;2023-03-21T10:45:18;101318.13;;;12.68
7830;BMP180;3960;51.86894000;5.39848000;2023-03-21T10:47:47;101309.59;;;12.66
7830;BMP180;3960;51.86894000;5.39848000;2023-03-21T10:50:16;101337.41;;;12.77
7830;BMP180;3960;51.86894000;5.39848000;2023-03-21T10:52:46;101335.16;;;12.72
7830;BMP180;3960;51.86894000;5.39848000;2023-03-21T10:55:25;101347.56;;;12.73
7830;BMP180;3960;51.86894000;5.39848000;2023-03-21T10:57:59;101341.34;;;12.72
7830;BMP180;3960;51.86894000;5.39848000;2023-03-21T11:00:29;101334.44;;;12.68
7830;BMP180;3960;51.86894000;5.39848000;2023-03-21T11:02:58;101328.22;;;12.67
7830;BMP180;3960;51.86894000;5.39848000;2023-03-21T11:05:42;101334.03;;;12.69
7830;BMP180;3960;51.86894000;5.39848000;2023-03-21T11:08:13;101323.09;;;12.73
7830;BMP180;3960;51.86894000;5.39848000;2023-03-21T11:11:04;101327.91;;;12.95
7830;BMP180;3960;51.86894000;5.39848000;2023-03-21T11:13:37;101321.19;;;13.03
7830;BMP180;3960;51.86894000;5.39848000;2023-03-21T11:16:10;101339.63;;;13.18
7830;BMP180;3960;51.86894000;5.39848000;2023-03-21T11:18:41;101327.88;;;13.25
7830;BMP180;3960;51.86894000;5.39848000;2023-03-21T11:21:09;101330.53;;;13.28
7830;BMP180;3960;51.86894000;5.39848000;2023-03-21T11:23:40;101308.78;;;13.28
7830;BMP180;3960;51.86894000;5.39848000;2023-03-21T11:26:10;101312.41;;;13.45
7830;BMP180;3960;51.86894000;5.39848000;2023-03-21T11:28:38;101306.66;;;13.43
7830;BMP180;3960;51.86894000;5.39848000;2023-03-21T11:31:05;101307.41;;;13.43
7830;BMP180;3960;51.86894000;5.39848000;2023-03-21T11:33:43;101312.19;;;13.36
7830;BMP180;3960;51.86894000;5.39848000;2023-03-21T11:36:33;101314.84;;;13.39
7830;BMP180;3960;51.86894000;5.39848000;2023-03-21T11:39:12;101316.41;;;13.37
7830;BMP180;3960;51.86894000;5.39848000;2023-03-21T11:41:40;101300.84;;;13.41
7830;BMP180;3960;51.86894000;5.39848000;2023-03-21T11:44:05;101301.97;;;13.43
7830;BMP180;3960;51.86894000;5.39848000;2023-03-21T11:46:32;101304.56;;;13.50
7830;BMP180;3960;51.86894000;5.39848000;2023-03-21T11:49:04;101312.00;;;13.46
7830;BMP180;3960;51.86894000;5.39848000;2023-03-21T11:57:35;101293.38;;;13.45
7830;BMP180;3960;51.86894000;5.39848000;2023-03-21T12:00:23;101285.25;;;13.41
7830;BMP180;3960;51.86894000;5.39848000;2023-03-21T12:05:28;101297.38;;;13.63
7830;BMP180;3960;51.86894000;5.39848000;2023-03-21T12:13:25;101290.47;;;13.82
7830;BMP180;3960;51.86894000;5.39848000;2023-03-21T12:26:39;101275.31;;;14.00
7830;BMP180;3960;51.86894000;5.39848000;2023-03-21T12:29:40;101259.41;;;13.98
7830;BMP180;3960;51.86894000;5.39848000;2023-03-21T12:37:48;101261.06;;;14.15
7830;BMP180;3960;51.86894000;5.39848000;2023-03-21T12:40:32;101255.81;;;14.05
7830;BMP180;3960;51.86894000;5.39848000;2023-03-21T12:43:26;101253.28;;;13.94
7830;BMP180;3960;51.86894000;5.39848000;2023-03-21T12:45:56;101250.69;;;13.87
7830;BMP180;3960;51.86894000;5.39848000;2023-03-21T12:48:37;101237.25;;;13.77
7830;BMP180;3960;51.86894000;5.39848000;2023-03-21T12:51:07;101259.97;;;13.90
7830;BMP180;3960;51.86894000;5.39848000;2023-03-21T12:53:38;101253.22;;;13.98
7830;BMP180;3960;51.86894000;5.39848000;2023-03-21T12:56:09;101250.56;;;13.94
7830;BMP180;3960;51.86894000;5.39848000;2023-03-21T12:58:49;101247.28;;;14.03
7830;BMP180;3960;51.86894000;5.39848000;2023-03-21T13:01:16;101232.97;;;14.57
7830;BMP180;3960;51.86894000;5.39848000;2023-03-21T13:03:47;101223.66;;;15.25
7830;BMP180;3960;51.86894000;5.39848000;2023-03-21T13:06:16;101224.00;;;15.43
7830;BMP180;3960;51.86894000;5.39848000;2023-03-21T13:08:43;101230.88;;;15.79
7830;BMP180;3960;51.86894000;5.39848000;2023-03-21T13:11:13;101233.31;;;16.34
7830;BMP180;3960;51.86894000;5.39848000;2023-03-21T13:16:31;101223.63;;;16.58
7830;BMP180;3960;51.86894000;5.39848000;2023-03-21T13:24:47;101221.38;;;16.93
7830;BMP180;3960;51.86894000;5.39848000;2023-03-21T13:27:34;101207.25;;;17.07
7830;BMP180;3960;51.86894000;5.39848000;2023-03-21T13:30:01;101212.84;;;17.04
7830;BMP180;3960;51.86894000;5.39848000;2023-03-21T13:32:35;101203.03;;;16.41
7830;BMP180;3960;51.86894000;5.39848000;2023-03-21T13:35:22;101206.63;;;15.97
7830;BMP180;3960;51.86894000;5.39848000;2023-03-21T13:38:02;101210.66;;;15.77
7830;BMP180;3960;51.86894000;5.39848000;2023-03-21T13:40:36;101191.25;;;15.43
7830;BMP180;3960;51.86894000;5.39848000;2023-03-21T13:43:02;101201.66;;;15.32
7830;BMP180;3960;51.86894000;5.39848000;2023-03-21T13:45:51;101204.22;;;15.23
7830;BMP180;3960;51.86894000;5.39848000;2023-03-21T13:48:27;101198.00;;;15.23
7830;BMP180;3960;51.86894000;5.39848000;2023-03-21T13:51:02;101181.34;;;15.17
7830;BMP180;3960;51.86894000;5.39848000;2023-03-21T13:53:41;101196.63;;;14.99
7830;BMP180;3960;51.86894000;5.39848000;2023-03-21T14:01:32;101180.25;;;14.99
7830;BMP180;3960;51.86894000;5.39848000;2023-03-21T14:04:11;101172.00;;;15.02
7830;BMP180;3960;51.86894000;5.39848000;2023-03-21T14:06:52;101178.47;;;15.08
7830;BMP180;3960;51.86894000;5.39848000;2023-03-21T14:09:25;101172.00;;;15.02
7830;BMP180;3960;51.86894000;5.39848000;2023-03-21T14:11:52;101175.38;;;15.06